sensor_id;sensor_type;location;lat;lon;timestamp;P1;durP1;ratioP1;P2;durP2;ratioP2
18796;SDS011;9526;52.612;13.300;2022-07-19T00:00:46;11.50;;;6.88;;
18796;SDS011;9526;52.612;13.300;2022-07-19T00:03:09;11.02;;;7.85;;
18796;SDS011;9526;52.612;13.300;2022-07-19T00:05:33;12.38;;;7.18;;
18796;SDS011;9526;52.612;13.300;2022-07-19T00:07:57;11.75;;;7.35;;
18796;SDS011;9526;52.612;13.300;2022-07-19T00:10:20;13.13;;;7.72;;
18796;SDS011;9526;52.612;13.300;2022-07-19T00:12:44;12.90;;;7.38;;
18796;SDS011;9526;52.612;13.300;2022-07-19T00:15:10;10.20;;;7.40;;
18796;SDS011;9526;52.612;13.300;2022-07-19T00:17:39;10.55;;;7.20;;
18796;SDS011;9526;52.612;13.300;2022-07-19T00:20:04;11.20;;;7.72;;
18796;SDS011;9526;52.612;13.300;2022-07-19T00:22:30;10.90;;;7.10;;
18796;SDS011;9526;52.612;13.300;2022-07-19T00:24:53;10.38;;;7.10;;
18796;SDS011;9526;52.612;13.300;2022-07-19T00:27:17;12.07;;;7.20;;
18796;SDS011;9526;52.612;13.300;2022-07-19T00:29:41;11.23;;;7.57;;
18796;SDS011;9526;52.612;13.300;2022-07-19T00:32:06;11.70;;;7.57;;
18796;SDS011;9526;52.612;13.300;2022-07-19T00:34:30;13.07;;;7.22;;
18796;SDS011;9526;52.612;13.300;2022-07-19T00:36:54;12.75;;;7.20;;
18796;SDS011;9526;52.612;13.300;2022-07-19T00:39:18;11.00;;;6.97;;
18796;SDS011;9526;52.612;13.300;2022-07-19T00:41:42;14.93;;;7.88;;
18796;SDS011;9526;52.612;13.300;2022-07-19T00:44:06;14.80;;;7.85;;
18796;SDS011;9526;52.612;13.300;2022-07-19T00:46:30;12.65;;;7.03;;
18796;SDS011;9526;52.612;13.300;2022-07-19T00:48:55;14.70;;;7.25;;
18796;SDS011;9526;52.612;13.300;2022-07-19T00:51:19;11.00;;;7.47;;
18796;SDS011;9526;52.612;13.300;2022-07-19T00:53:45;13.55;;;7.70;;
18796;SDS011;9526;52.612;13.300;2022-07-19T00:56:09;12.38;;;7.40;;
18796;SDS011;9526;52.612;13.300;2022-07-19T00:58:35;11.48;;;6.97;;
18796;SDS011;9526;52.612;13.300;2022-07-19T01:01:00;11.13;;;7.00;;
18796;SDS011;9526;52.612;13.300;2022-07-19T01:03:26;15.00;;;7.70;;
18796;SDS011;9526;52.612;13.300;2022-07-19T01:05:52;9.05;;;6.82;;
18796;SDS011;9526;52.612;13.300;2022-07-19T01:08:15;9.52;;;7.32;;
18796;SDS011;9526;52.612;13.300;2022-07-19T01:10:39;12.45;;;7.60;;
18796;SDS011;9526;52.612;13.300;2022-07-19T01:13:03;12.05;;;7.57;;
18796;SDS011;9526;52.612;13.300;2022-07-19T01:15:27;10.63;;;6.80;;
18796;SDS011;9526;52.612;13.300;2022-07-19T01:17:51;11.45;;;7.93;;
18796;SDS011;9526;52.612;13.300;2022-07-19T01:20:15;11.27;;;7.93;;
18796;SDS011;9526;52.612;13.300;2022-07-19T01:22:41;12.00;;;7.75;;
18796;SDS011;9526;52.612;13.300;2022-07-19T01:25:08;11.15;;;7.70;;
18796;SDS011;9526;52.612;13.300;2022-07-19T01:27:37;11.77;;;7.60;;
18796;SDS011;9526;52.612;13.300;2022-07-19T01:30:02;11.88;;;7.57;;
18796;SDS011;9526;52.612;13.300;2022-07-19T01:32:33;11.63;;;7.15;;
18796;SDS011;9526;52.612;13.300;2022-07-19T01:34:56;10.60;;;7.43;;
18796;SDS011;9526;52.612;13.300;2022-07-19T01:37:21;10.20;;;7.10;;
18796;SDS011;9526;52.612;13.300;2022-07-19T01:39:46;17.77;;;7.30;;
18796;SDS011;9526;52.612;13.300;2022-07-19T01:42:10;11.32;;;7.15;;
18796;SDS011;9526;52.612;13.300;2022-07-19T01:44:33;10.70;;;7.53;;
18796;SDS011;9526;52.612;13.300;2022-07-19T01:46:57;11.35;;;7.57;;
18796;SDS011;9526;52.612;13.300;2022-07-19T01:49:22;10.35;;;7.70;;
18796;SDS011;9526;52.612;13.300;2022-07-19T01:51:46;11.68;;;8.02;;
18796;SDS011;9526;52.612;13.300;2022-07-19T01:54:10;10.50;;;7.63;;
18796;SDS011;9526;52.612;13.300;2022-07-19T01:56:35;12.18;;;7.70;;
18796;SDS011;9526;52.612;13.300;2022-07-19T01:58:58;12.10;;;7.28;;
18796;SDS011;9526;52.612;13.300;2022-07-19T02:01:22;15.60;;;7.10;;
18796;SDS011;9526;52.612;13.300;2022-07-19T02:03:46;9.70;;;7.05;;
18796;SDS011;9526;52.612;13.300;2022-07-19T02:06:10;14.55;;;7.80;;
18796;SDS011;9526;52.612;13.300;2022-07-19T02:08:34;10.98;;;7.63;;
18796;SDS011;9526;52.612;13.300;2022-07-19T02:10:58;11.23;;;7.20;;
18796;SDS011;9526;52.612;13.300;2022-07-19T02:13:43;11.20;;;7.70;;
18796;SDS011;9526;52.612;13.300;2022-07-19T02:16:07;13.90;;;7.72;;
18796;SDS011;9526;52.612;13.300;2022-07-19T02:18:31;11.35;;;6.75;;
18796;SDS011;9526;52.612;13.300;2022-07-19T02:20:55;12.25;;;7.80;;
18796;SDS011;9526;52.612;13.300;2022-07-19T02:23:19;10.73;;;7.43;;
18796;SDS011;9526;52.612;13.300;2022-07-19T02:25:43;13.73;;;8.35;;
18796;SDS011;9526;52.612;13.300;2022-07-19T02:28:06;10.20;;;7.38;;
18796;SDS011;9526;52.612;13.300;2022-07-19T02:30:32;11.52;;;8.18;;
18796;SDS011;9526;52.612;13.300;2022-07-19T02:32:56;12.02;;;7.15;;
18796;SDS011;9526;52.612;13.300;2022-07-19T02:35:19;12.75;;;7.25;;
18796;SDS011;9526;52.612;13.300;2022-07-19T02:37:43;12.95;;;7.43;;
18796;SDS011;9526;52.612;13.300;2022-07-19T02:40:08;13.82;;;8.20;;
18796;SDS011;9526;52.612;13.300;2022-07-19T02:42:32;11.80;;;7.43;;
18796;SDS011;9526;52.612;13.300;2022-07-19T02:44:56;11.45;;;7.85;;
18796;SDS011;9526;52.612;13.300;2022-07-19T02:47:21;14.02;;;7.43;;
18796;SDS011;9526;52.612;13.300;2022-07-19T02:49:45;11.10;;;7.95;;
18796;SDS011;9526;52.612;13.300;2022-07-19T02:52:08;14.55;;;7.63;;
18796;SDS011;9526;52.612;13.300;2022-07-19T02:54:32;10.35;;;7.43;;
18796;SDS011;9526;52.612;13.300;2022-07-19T02:56:56;13.77;;;7.88;;
18796;SDS011;9526;52.612;13.300;2022-07-19T02:59:19;10.95;;;7.25;;
18796;SDS011;9526;52.612;13.300;2022-07-19T03:01:43;16.52;;;7.65;;
18796;SDS011;9526;52.612;13.300;2022-07-19T03:04:08;10.77;;;6.95;;
18796;SDS011;9526;52.612;13.300;2022-07-19T03:06:32;12.07;;;8.38;;
18796;SDS011;9526;52.612;13.300;2022-07-19T03:08:56;12.88;;;7.68;;
18796;SDS011;9526;52.612;13.300;2022-07-19T03:11:20;9.45;;;7.28;;
18796;SDS011;9526;52.612;13.300;2022-07-19T03:13:44;13.50;;;7.95;;
18796;SDS011;9526;52.612;13.300;2022-07-19T03:16:08;13.88;;;7.90;;
18796;SDS011;9526;52.612;13.300;2022-07-19T03:18:32;13.52;;;8.15;;
18796;SDS011;9526;52.612;13.300;2022-07-19T03:20:57;16.60;;;8.02;;
18796;SDS011;9526;52.612;13.300;2022-07-19T03:23:21;10.23;;;7.15;;
18796;SDS011;9526;52.612;13.300;2022-07-19T03:25:45;14.63;;;7.50;;
18796;SDS011;9526;52.612;13.300;2022-07-19T03:28:08;11.73;;;7.28;;
18796;SDS011;9526;52.612;13.300;2022-07-19T03:30:32;12.95;;;8.02;;
18796;SDS011;9526;52.612;13.300;2022-07-19T03:32:56;25.95;;;10.35;;
18796;SDS011;9526;52.612;13.300;2022-07-19T03:35:19;16.73;;;8.63;;
18796;SDS011;9526;52.612;13.300;2022-07-19T03:37:45;23.40;;;9.32;;
18796;SDS011;9526;52.612;13.300;2022-07-19T03:40:09;17.63;;;9.23;;
18796;SDS011;9526;52.612;13.300;2022-07-19T03:42:33;14.20;;;8.10;;
18796;SDS011;9526;52.612;13.300;2022-07-19T03:44:57;31.77;;;11.05;;
18796;SDS011;9526;52.612;13.300;2022-07-19T03:47:21;34.25;;;11.07;;
18796;SDS011;9526;52.612;13.300;2022-07-19T03:49:45;27.75;;;10.02;;
18796;SDS011;9526;52.612;13.300;2022-07-19T03:52:09;29.10;;;10.00;;
18796;SDS011;9526;52.612;13.300;2022-07-19T03:54:40;45.38;;;14.35;;
18796;SDS011;9526;52.612;13.300;2022-07-19T03:57:04;45.13;;;13.43;;
18796;SDS011;9526;52.612;13.300;2022-07-19T03:59:27;68.07;;;19.17;;
18796;SDS011;9526;52.612;13.300;2022-07-19T04:01:51;46.75;;;15.73;;
18796;SDS011;9526;52.612;13.300;2022-07-19T04:04:15;32.65;;;11.10;;
18796;SDS011;9526;52.612;13.300;2022-07-19T04:06:39;22.40;;;9.90;;
18796;SDS011;9526;52.612;13.300;2022-07-19T04:09:02;15.68;;;8.73;;
18796;SDS011;9526;52.612;13.300;2022-07-19T04:11:27;23.83;;;8.38;;
18796;SDS011;9526;52.612;13.300;2022-07-19T04:13:51;16.52;;;8.48;;
18796;SDS011;9526;52.612;13.300;2022-07-19T04:16:15;14.45;;;8.73;;
18796;SDS011;9526;52.612;13.300;2022-07-19T04:18:39;13.15;;;8.32;;
18796;SDS011;9526;52.612;13.300;2022-07-19T04:21:03;13.27;;;8.20;;
18796;SDS011;9526;52.612;13.300;2022-07-19T04:23:27;13.77;;;7.20;;
18796;SDS011;9526;52.612;13.300;2022-07-19T04:25:50;16.42;;;9.20;;
18796;SDS011;9526;52.612;13.300;2022-07-19T04:28:15;14.13;;;7.78;;
18796;SDS011;9526;52.612;13.300;2022-07-19T04:30:39;16.60;;;8.60;;
18796;SDS011;9526;52.612;13.300;2022-07-19T04:33:03;13.30;;;7.82;;
18796;SDS011;9526;52.612;13.300;2022-07-19T04:35:27;13.65;;;8.13;;
18796;SDS011;9526;52.612;13.300;2022-07-19T04:37:51;13.75;;;7.82;;
18796;SDS011;9526;52.612;13.300;2022-07-19T04:40:14;15.77;;;8.68;;
18796;SDS011;9526;52.612;13.300;2022-07-19T04:42:38;13.63;;;8.00;;
18796;SDS011;9526;52.612;13.300;2022-07-19T04:45:04;12.48;;;8.18;;
18796;SDS011;9526;52.612;13.300;2022-07-19T04:47:29;13.43;;;7.93;;
18796;SDS011;9526;52.612;13.300;2022-07-19T04:49:53;12.55;;;8.57;;
18796;SDS011;9526;52.612;13.300;2022-07-19T04:52:16;16.42;;;8.13;;
18796;SDS011;9526;52.612;13.300;2022-07-19T04:54:40;14.18;;;7.80;;
18796;SDS011;9526;52.612;13.300;2022-07-19T04:57:04;13.02;;;7.88;;
18796;SDS011;9526;52.612;13.300;2022-07-19T04:59:28;11.68;;;8.15;;
18796;SDS011;9526;52.612;13.300;2022-07-19T05:01:53;17.77;;;7.85;;
18796;SDS011;9526;52.612;13.300;2022-07-19T05:04:16;14.45;;;8.20;;
18796;SDS011;9526;52.612;13.300;2022-07-19T05:06:40;16.92;;;8.35;;
18796;SDS011;9526;52.612;13.300;2022-07-19T05:09:06;11.55;;;7.93;;
18796;SDS011;9526;52.612;13.300;2022-07-19T05:11:30;16.98;;;8.38;;
18796;SDS011;9526;52.612;13.300;2022-07-19T05:13:54;16.20;;;7.88;;
18796;SDS011;9526;52.612;13.300;2022-07-19T05:16:18;14.05;;;8.50;;
18796;SDS011;9526;52.612;13.300;2022-07-19T05:18:43;16.75;;;7.93;;
18796;SDS011;9526;52.612;13.300;2022-07-19T05:21:07;14.85;;;8.07;;
18796;SDS011;9526;52.612;13.300;2022-07-19T05:23:31;13.30;;;8.00;;
18796;SDS011;9526;52.612;13.300;2022-07-19T05:25:54;15.20;;;7.68;;
18796;SDS011;9526;52.612;13.300;2022-07-19T05:28:18;16.10;;;7.82;;
18796;SDS011;9526;52.612;13.300;2022-07-19T05:30:42;14.27;;;7.72;;
18796;SDS011;9526;52.612;13.300;2022-07-19T05:33:05;11.90;;;7.50;;
18796;SDS011;9526;52.612;13.300;2022-07-19T05:35:31;17.67;;;7.88;;
18796;SDS011;9526;52.612;13.300;2022-07-19T05:37:54;15.07;;;7.70;;
18796;SDS011;9526;52.612;13.300;2022-07-19T05:40:18;17.13;;;6.75;;
18796;SDS011;9526;52.612;13.300;2022-07-19T05:42:42;12.95;;;6.65;;
18796;SDS011;9526;52.612;13.300;2022-07-19T05:45:06;17.80;;;6.90;;
18796;SDS011;9526;52.612;13.300;2022-07-19T05:47:31;13.68;;;6.70;;
18796;SDS011;9526;52.612;13.300;2022-07-19T05:49:54;11.23;;;6.47;;
18796;SDS011;9526;52.612;13.300;2022-07-19T05:52:22;11.95;;;6.20;;
18796;SDS011;9526;52.612;13.300;2022-07-19T05:54:47;17.60;;;6.00;;
18796;SDS011;9526;52.612;13.300;2022-07-19T05:57:11;11.80;;;6.22;;
18796;SDS011;9526;52.612;13.300;2022-07-19T05:59:34;10.35;;;5.55;;
18796;SDS011;9526;52.612;13.300;2022-07-19T06:01:58;12.85;;;6.07;;
18796;SDS011;9526;52.612;13.300;2022-07-19T06:04:22;9.30;;;5.95;;
18796;SDS011;9526;52.612;13.300;2022-07-19T06:06:46;17.92;;;6.35;;
18796;SDS011;9526;52.612;13.300;2022-07-19T06:09:11;14.48;;;5.78;;
18796;SDS011;9526;52.612;13.300;2022-07-19T06:11:37;8.07;;;5.10;;
18796;SDS011;9526;52.612;13.300;2022-07-19T06:14:03;11.55;;;6.05;;
18796;SDS011;9526;52.612;13.300;2022-07-19T06:16:28;9.23;;;5.10;;
18796;SDS011;9526;52.612;13.300;2022-07-19T06:18:52;8.65;;;4.43;;
18796;SDS011;9526;52.612;13.300;2022-07-19T06:21:16;10.15;;;4.40;;
18796;SDS011;9526;52.612;13.300;2022-07-19T06:23:42;7.07;;;4.07;;
18796;SDS011;9526;52.612;13.300;2022-07-19T06:26:09;9.05;;;4.45;;
18796;SDS011;9526;52.612;13.300;2022-07-19T06:28:34;7.60;;;3.60;;
18796;SDS011;9526;52.612;13.300;2022-07-19T06:31:01;6.68;;;4.00;;
18796;SDS011;9526;52.612;13.300;2022-07-19T06:33:25;8.95;;;3.80;;
18796;SDS011;9526;52.612;13.300;2022-07-19T06:35:49;6.57;;;3.70;;
18796;SDS011;9526;52.612;13.300;2022-07-19T06:38:13;4.75;;;3.60;;
18796;SDS011;9526;52.612;13.300;2022-07-19T06:40:37;4.50;;;3.40;;
18796;SDS011;9526;52.612;13.300;2022-07-19T06:43:03;5.45;;;3.38;;
18796;SDS011;9526;52.612;13.300;2022-07-19T06:45:26;6.93;;;3.30;;
18796;SDS011;9526;52.612;13.300;2022-07-19T06:47:50;10.57;;;3.83;;
18796;SDS011;9526;52.612;13.300;2022-07-19T06:50:14;4.95;;;3.30;;
18796;SDS011;9526;52.612;13.300;2022-07-19T06:52:58;4.47;;;3.30;;
18796;SDS011;9526;52.612;13.300;2022-07-19T06:55:22;9.95;;;5.43;;
18796;SDS011;9526;52.612;13.300;2022-07-19T06:57:46;7.35;;;3.55;;
18796;SDS011;9526;52.612;13.300;2022-07-19T07:00:11;4.03;;;3.05;;
18796;SDS011;9526;52.612;13.300;2022-07-19T07:02:37;7.63;;;3.45;;
18796;SDS011;9526;52.612;13.300;2022-07-19T07:05:01;4.10;;;3.10;;
18796;SDS011;9526;52.612;13.300;2022-07-19T07:07:25;7.28;;;3.40;;
18796;SDS011;9526;52.612;13.300;2022-07-19T07:09:49;9.75;;;3.05;;
18796;SDS011;9526;52.612;13.300;2022-07-19T07:12:13;11.50;;;5.85;;
18796;SDS011;9526;52.612;13.300;2022-07-19T07:14:36;8.20;;;3.42;;
18796;SDS011;9526;52.612;13.300;2022-07-19T07:17:01;7.07;;;2.92;;
18796;SDS011;9526;52.612;13.300;2022-07-19T07:19:25;5.93;;;3.80;;
18796;SDS011;9526;52.612;13.300;2022-07-19T07:21:49;4.72;;;3.38;;
18796;SDS011;9526;52.612;13.300;2022-07-19T07:24:13;6.93;;;3.20;;
18796;SDS011;9526;52.612;13.300;2022-07-19T07:26:37;8.18;;;3.20;;
18796;SDS011;9526;52.612;13.300;2022-07-19T07:29:00;4.53;;;2.50;;
18796;SDS011;9526;52.612;13.300;2022-07-19T07:31:24;6.85;;;2.95;;
18796;SDS011;9526;52.612;13.300;2022-07-19T07:33:49;7.45;;;2.85;;
18796;SDS011;9526;52.612;13.300;2022-07-19T07:36:13;7.38;;;2.90;;
18796;SDS011;9526;52.612;13.300;2022-07-19T07:38:37;7.10;;;2.60;;
18796;SDS011;9526;52.612;13.300;2022-07-19T07:41:01;5.45;;;2.72;;
18796;SDS011;9526;52.612;13.300;2022-07-19T07:43:46;3.53;;;2.70;;
18796;SDS011;9526;52.612;13.300;2022-07-19T07:46:09;3.80;;;2.80;;
18796;SDS011;9526;52.612;13.300;2022-07-19T07:48:33;5.53;;;2.92;;
18796;SDS011;9526;52.612;13.300;2022-07-19T07:50:58;8.98;;;2.75;;
18796;SDS011;9526;52.612;13.300;2022-07-19T07:53:42;3.15;;;2.70;;
18796;SDS011;9526;52.612;13.300;2022-07-19T07:56:06;5.10;;;2.50;;
18796;SDS011;9526;52.612;13.300;2022-07-19T07:58:37;9.40;;;2.75;;
18796;SDS011;9526;52.612;13.300;2022-07-19T08:01:00;5.07;;;2.95;;
18796;SDS011;9526;52.612;13.300;2022-07-19T08:03:24;7.85;;;2.67;;
18796;SDS011;9526;52.612;13.300;2022-07-19T08:05:48;9.27;;;2.80;;
18796;SDS011;9526;52.612;13.300;2022-07-19T08:08:13;5.68;;;3.00;;
18796;SDS011;9526;52.612;13.300;2022-07-19T08:10:37;8.48;;;3.20;;
18796;SDS011;9526;52.612;13.300;2022-07-19T08:13:01;6.63;;;3.00;;
18796;SDS011;9526;52.612;13.300;2022-07-19T08:15:29;5.07;;;2.90;;
18796;SDS011;9526;52.612;13.300;2022-07-19T08:17:52;6.40;;;2.50;;
18796;SDS011;9526;52.612;13.300;2022-07-19T08:20:16;7.88;;;3.13;;
18796;SDS011;9526;52.612;13.300;2022-07-19T08:22:40;3.50;;;2.65;;
18796;SDS011;9526;52.612;13.300;2022-07-19T08:25:06;6.78;;;2.95;;
18796;SDS011;9526;52.612;13.300;2022-07-19T08:27:32;7.45;;;2.60;;
18796;SDS011;9526;52.612;13.300;2022-07-19T08:29:56;10.15;;;3.20;;
18796;SDS011;9526;52.612;13.300;2022-07-19T08:32:28;9.95;;;3.20;;
18796;SDS011;9526;52.612;13.300;2022-07-19T08:34:52;5.97;;;3.20;;
18796;SDS011;9526;52.612;13.300;2022-07-19T08:37:15;7.80;;;3.00;;
18796;SDS011;9526;52.612;13.300;2022-07-19T08:39:39;5.05;;;3.17;;
18796;SDS011;9526;52.612;13.300;2022-07-19T08:42:04;5.22;;;3.00;;
18796;SDS011;9526;52.612;13.300;2022-07-19T08:44:28;8.00;;;3.25;;
18796;SDS011;9526;52.612;13.300;2022-07-19T08:46:52;10.88;;;3.65;;
18796;SDS011;9526;52.612;13.300;2022-07-19T08:49:17;7.70;;;3.25;;
18796;SDS011;9526;52.612;13.300;2022-07-19T08:51:42;7.60;;;3.25;;
18796;SDS011;9526;52.612;13.300;2022-07-19T08:54:06;7.32;;;3.20;;
18796;SDS011;9526;52.612;13.300;2022-07-19T08:56:29;7.82;;;3.15;;
18796;SDS011;9526;52.612;13.300;2022-07-19T08:59:12;9.75;;;3.10;;
18796;SDS011;9526;52.612;13.300;2022-07-19T09:01:36;6.55;;;2.90;;
18796;SDS011;9526;52.612;13.300;2022-07-19T09:04:04;6.88;;;3.30;;
18796;SDS011;9526;52.612;13.300;2022-07-19T09:06:41;7.80;;;3.10;;
18796;SDS011;9526;52.612;13.300;2022-07-19T09:09:08;7.32;;;3.20;;
18796;SDS011;9526;52.612;13.300;2022-07-19T09:11:33;15.77;;;3.28;;
18796;SDS011;9526;52.612;13.300;2022-07-19T09:14:03;5.32;;;3.10;;
18796;SDS011;9526;52.612;13.300;2022-07-19T09:16:30;9.52;;;3.47;;
18796;SDS011;9526;52.612;13.300;2022-07-19T09:19:26;7.57;;;3.50;;
18796;SDS011;9526;52.612;13.300;2022-07-19T09:21:55;9.85;;;3.40;;
18796;SDS011;9526;52.612;13.300;2022-07-19T09:24:23;7.43;;;3.17;;
18796;SDS011;9526;52.612;13.300;2022-07-19T09:26:57;10.10;;;3.17;;
18796;SDS011;9526;52.612;13.300;2022-07-19T09:29:25;5.30;;;3.03;;
18796;SDS011;9526;52.612;13.300;2022-07-19T09:32:02;9.60;;;3.03;;
18796;SDS011;9526;52.612;13.300;2022-07-19T09:34:29;8.82;;;3.20;;
18796;SDS011;9526;52.612;13.300;2022-07-19T09:37:06;7.07;;;3.22;;
18796;SDS011;9526;52.612;13.300;2022-07-19T09:39:35;5.97;;;2.90;;
18796;SDS011;9526;52.612;13.300;2022-07-19T09:42:01;6.68;;;2.40;;
18796;SDS011;9526;52.612;13.300;2022-07-19T09:44:25;4.50;;;2.63;;
18796;SDS011;9526;52.612;13.300;2022-07-19T09:46:49;4.38;;;2.63;;
18796;SDS011;9526;52.612;13.300;2022-07-19T09:49:15;8.63;;;2.95;;
18796;SDS011;9526;52.612;13.300;2022-07-19T09:51:41;7.30;;;2.95;;
18796;SDS011;9526;52.612;13.300;2022-07-19T09:54:06;4.22;;;2.70;;
18796;SDS011;9526;52.612;13.300;2022-07-19T09:56:32;4.78;;;2.90;;
18796;SDS011;9526;52.612;13.300;2022-07-19T09:58:56;3.63;;;2.65;;
18796;SDS011;9526;52.612;13.300;2022-07-19T10:01:21;4.85;;;2.90;;
18796;SDS011;9526;52.612;13.300;2022-07-19T10:03:45;8.20;;;2.90;;
18796;SDS011;9526;52.612;13.300;2022-07-19T10:06:14;6.78;;;2.95;;
18796;SDS011;9526;52.612;13.300;2022-07-19T10:08:38;3.95;;;2.70;;
18796;SDS011;9526;52.612;13.300;2022-07-19T10:11:03;3.95;;;2.95;;
18796;SDS011;9526;52.612;13.300;2022-07-19T10:13:27;4.85;;;2.90;;
18796;SDS011;9526;52.612;13.300;2022-07-19T10:15:51;7.72;;;2.70;;
18796;SDS011;9526;52.612;13.300;2022-07-19T10:18:23;5.20;;;2.70;;
18796;SDS011;9526;52.612;13.300;2022-07-19T10:20:55;3.80;;;2.88;;
18796;SDS011;9526;52.612;13.300;2022-07-19T10:23:26;5.45;;;2.95;;
18796;SDS011;9526;52.612;13.300;2022-07-19T10:25:52;5.80;;;2.80;;
18796;SDS011;9526;52.612;13.300;2022-07-19T10:28:26;4.60;;;2.75;;
18796;SDS011;9526;52.612;13.300;2022-07-19T10:31:25;6.97;;;2.92;;
18796;SDS011;9526;52.612;13.300;2022-07-19T10:33:57;3.75;;;2.88;;
18796;SDS011;9526;52.612;13.300;2022-07-19T10:36:36;5.95;;;2.60;;
18796;SDS011;9526;52.612;13.300;2022-07-19T10:56:21;2.25;;;1.90;;
18796;SDS011;9526;52.612;13.300;2022-07-19T10:58:48;5.05;;;2.67;;
18796;SDS011;9526;52.612;13.300;2022-07-19T11:01:14;5.72;;;2.40;;
18796;SDS011;9526;52.612;13.300;2022-07-19T11:03:40;3.03;;;2.15;;
18796;SDS011;9526;52.612;13.300;2022-07-19T11:06:08;3.15;;;2.05;;
18796;SDS011;9526;52.612;13.300;2022-07-19T11:08:42;2.45;;;2.10;;
18796;SDS011;9526;52.612;13.300;2022-07-19T11:11:07;4.93;;;2.30;;
18796;SDS011;9526;52.612;13.300;2022-07-19T11:13:35;4.47;;;2.17;;
18796;SDS011;9526;52.612;13.300;2022-07-19T11:16:00;5.70;;;2.13;;
18796;SDS011;9526;52.612;13.300;2022-07-19T11:18:25;4.32;;;1.83;;
18796;SDS011;9526;52.612;13.300;2022-07-19T11:20:49;2.20;;;1.73;;
18796;SDS011;9526;52.612;13.300;2022-07-19T11:23:16;2.80;;;1.60;;
18796;SDS011;9526;52.612;13.300;2022-07-19T11:25:41;3.13;;;2.03;;
18796;SDS011;9526;52.612;13.300;2022-07-19T11:28:05;2.67;;;1.42;;
18796;SDS011;9526;52.612;13.300;2022-07-19T11:30:31;2.45;;;1.60;;
18796;SDS011;9526;52.612;13.300;2022-07-19T11:32:58;3.00;;;2.00;;
18796;SDS011;9526;52.612;13.300;2022-07-19T11:35:23;3.55;;;2.17;;
18796;SDS011;9526;52.612;13.300;2022-07-19T11:37:47;2.65;;;1.80;;
18796;SDS011;9526;52.612;13.300;2022-07-19T11:40:15;4.13;;;2.10;;
18796;SDS011;9526;52.612;13.300;2022-07-19T11:42:39;3.80;;;2.50;;
18796;SDS011;9526;52.612;13.300;2022-07-19T11:45:25;3.58;;;2.00;;
18796;SDS011;9526;52.612;13.300;2022-07-19T11:47:52;3.65;;;2.40;;
18796;SDS011;9526;52.612;13.300;2022-07-19T11:50:19;3.03;;;2.00;;
18796;SDS011;9526;52.612;13.300;2022-07-19T11:52:45;2.83;;;1.90;;
18796;SDS011;9526;52.612;13.300;2022-07-19T11:55:12;2.75;;;1.80;;
18796;SDS011;9526;52.612;13.300;2022-07-19T11:57:37;1.98;;;1.60;;
18796;SDS011;9526;52.612;13.300;2022-07-19T12:00:01;5.57;;;1.85;;
18796;SDS011;9526;52.612;13.300;2022-07-19T12:02:30;2.80;;;2.08;;
18796;SDS011;9526;52.612;13.300;2022-07-19T12:05:16;2.20;;;2.00;;
18796;SDS011;9526;52.612;13.300;2022-07-19T12:07:44;3.20;;;2.10;;
18796;SDS011;9526;52.612;13.300;2022-07-19T12:10:09;2.95;;;2.00;;
18796;SDS011;9526;52.612;13.300;2022-07-19T12:12:39;3.03;;;2.20;;
18796;SDS011;9526;52.612;13.300;2022-07-19T12:15:07;2.88;;;1.88;;
18796;SDS011;9526;52.612;13.300;2022-07-19T12:17:31;3.72;;;2.00;;
18796;SDS011;9526;52.612;13.300;2022-07-19T12:20:08;2.40;;;1.90;;
18796;SDS011;9526;52.612;13.300;2022-07-19T12:22:52;3.25;;;1.80;;
18796;SDS011;9526;52.612;13.300;2022-07-19T12:25:16;4.78;;;1.92;;
18796;SDS011;9526;52.612;13.300;2022-07-19T12:27:59;2.65;;;1.95;;
18796;SDS011;9526;52.612;13.300;2022-07-19T12:30:23;4.65;;;2.20;;
18796;SDS011;9526;52.612;13.300;2022-07-19T12:32:48;3.25;;;2.00;;
18796;SDS011;9526;52.612;13.300;2022-07-19T12:35:14;2.92;;;2.13;;
18796;SDS011;9526;52.612;13.300;2022-07-19T12:37:39;2.35;;;2.10;;
18796;SDS011;9526;52.612;13.300;2022-07-19T12:40:05;5.38;;;2.45;;
18796;SDS011;9526;52.612;13.300;2022-07-19T12:42:40;4.28;;;2.13;;
18796;SDS011;9526;52.612;13.300;2022-07-19T12:45:06;4.93;;;2.40;;
18796;SDS011;9526;52.612;13.300;2022-07-19T12:47:32;4.03;;;2.40;;
18796;SDS011;9526;52.612;13.300;2022-07-19T12:49:58;5.35;;;2.45;;
18796;SDS011;9526;52.612;13.300;2022-07-19T12:52:33;4.57;;;2.30;;
18796;SDS011;9526;52.612;13.300;2022-07-19T12:54:57;2.30;;;2.10;;
18796;SDS011;9526;52.612;13.300;2022-07-19T12:57:21;3.95;;;2.47;;
18796;SDS011;9526;52.612;13.300;2022-07-19T12:59:44;3.72;;;2.30;;
18796;SDS011;9526;52.612;13.300;2022-07-19T13:02:10;6.35;;;2.78;;
18796;SDS011;9526;52.612;13.300;2022-07-19T13:04:36;6.22;;;2.67;;
18796;SDS011;9526;52.612;13.300;2022-07-19T13:07:01;4.80;;;2.65;;
18796;SDS011;9526;52.612;13.300;2022-07-19T13:09:26;3.83;;;2.60;;
18796;SDS011;9526;52.612;13.300;2022-07-19T13:11:50;5.93;;;2.45;;
18796;SDS011;9526;52.612;13.300;2022-07-19T13:14:19;4.90;;;2.60;;
18796;SDS011;9526;52.612;13.300;2022-07-19T13:16:45;5.30;;;2.50;;
18796;SDS011;9526;52.612;13.300;2022-07-19T13:19:09;4.82;;;2.58;;
18796;SDS011;9526;52.612;13.300;2022-07-19T13:21:33;7.22;;;2.72;;
18796;SDS011;9526;52.612;13.300;2022-07-19T13:23:58;3.45;;;2.60;;
18796;SDS011;9526;52.612;13.300;2022-07-19T13:26:33;4.28;;;2.38;;
18796;SDS011;9526;52.612;13.300;2022-07-19T13:28:57;7.07;;;2.40;;
18796;SDS011;9526;52.612;13.300;2022-07-19T13:31:21;6.85;;;2.83;;
18796;SDS011;9526;52.612;13.300;2022-07-19T13:33:45;2.90;;;2.58;;
18796;SDS011;9526;52.612;13.300;2022-07-19T13:36:09;4.35;;;2.47;;
18796;SDS011;9526;52.612;13.300;2022-07-19T13:38:33;4.05;;;2.42;;
18796;SDS011;9526;52.612;13.300;2022-07-19T13:40:59;6.10;;;2.60;;
18796;SDS011;9526;52.612;13.300;2022-07-19T13:43:26;4.30;;;2.40;;
18796;SDS011;9526;52.612;13.300;2022-07-19T13:45:51;5.05;;;2.70;;
18796;SDS011;9526;52.612;13.300;2022-07-19T13:48:15;3.25;;;2.17;;
18796;SDS011;9526;52.612;13.300;2022-07-19T13:50:39;4.15;;;2.65;;
18796;SDS011;9526;52.612;13.300;2022-07-19T13:53:02;7.05;;;2.60;;
18796;SDS011;9526;52.612;13.300;2022-07-19T13:55:27;3.10;;;2.20;;
18796;SDS011;9526;52.612;13.300;2022-07-19T13:57:50;5.85;;;2.60;;
18796;SDS011;9526;52.612;13.300;2022-07-19T14:00:16;4.28;;;2.33;;
18796;SDS011;9526;52.612;13.300;2022-07-19T14:02:40;10.50;;;3.20;;
18796;SDS011;9526;52.612;13.300;2022-07-19T14:05:06;5.22;;;2.67;;
18796;SDS011;9526;52.612;13.300;2022-07-19T14:07:32;6.18;;;2.72;;
18796;SDS011;9526;52.612;13.300;2022-07-19T14:09:58;4.38;;;2.50;;
18796;SDS011;9526;52.612;13.300;2022-07-19T14:12:23;2.70;;;2.33;;
18796;SDS011;9526;52.612;13.300;2022-07-19T14:14:48;5.07;;;2.50;;
18796;SDS011;9526;52.612;13.300;2022-07-19T14:17:15;4.30;;;2.67;;
18796;SDS011;9526;52.612;13.300;2022-07-19T14:19:39;5.32;;;2.60;;
18796;SDS011;9526;52.612;13.300;2022-07-19T14:22:04;2.92;;;2.40;;
18796;SDS011;9526;52.612;13.300;2022-07-19T14:24:30;5.47;;;3.00;;
18796;SDS011;9526;52.612;13.300;2022-07-19T14:26:54;3.25;;;2.40;;
18796;SDS011;9526;52.612;13.300;2022-07-19T14:29:19;6.57;;;2.50;;
18796;SDS011;9526;52.612;13.300;2022-07-19T14:31:44;4.68;;;2.70;;
18796;SDS011;9526;52.612;13.300;2022-07-19T14:34:11;3.75;;;2.47;;
18796;SDS011;9526;52.612;13.300;2022-07-19T14:36:56;3.13;;;2.83;;
18796;SDS011;9526;52.612;13.300;2022-07-19T14:39:21;4.35;;;2.58;;
18796;SDS011;9526;52.612;13.300;2022-07-19T14:41:49;3.88;;;2.60;;
18796;SDS011;9526;52.612;13.300;2022-07-19T14:44:13;3.33;;;2.45;;
18796;SDS011;9526;52.612;13.300;2022-07-19T14:46:37;8.05;;;2.60;;
18796;SDS011;9526;52.612;13.300;2022-07-19T14:49:01;4.63;;;2.42;;